Terminal Aerodrome Forecast
Issued by NWS Sterling, VA

Home | Current Version | Previous Version | Text Only | Print | Product List | Glossary On
Versions: 1 2 3 4 5 6 7 8 9 10 11 12 13
000
FTUS41 KLWX 021737
TAFCHO
TAF
KCHO 021737Z 0218/0318 00000KT P6SM VCTS BKN090CB
     FM030200 VRB03KT P6SM BKN090
     FM030300 VRB03KT P6SM SCT090
     FM030800 31004KT 5SM BR SCT080
     FM030900 31004KT 3SM BR FEW070
     FM031200 32004KT 5SM BR FEW060
     FM031300 33004KT P6SM FEW070=

USA.gov is the U.S. government's official web portal to all federal, state and local government web resources and services.